Pinega, Russia
Current Conditions -  °F | °C
As of 6:00 AM on Thursday 23 Oct 2014 (Local Time) from ULAA Reporting Station
Clear Clear  
Wind Chill: 17°   Ceiling: Unl
Heat Index: 23°   Visibility: 6mi
Dew Point: 21°   Wind: 4mph
Humidity: 93%   Direction: 350°N
Pressure: 30.39"   Gusts: NA
Location:  64.7°N, 43.38°E
Report Text: ULAA 230300Z 35002MPS 310V040 CAVOK M05/M06 Q1029 NOSIG RMKQFE770/1027 SC060
Loading
Personal Weather Stations






























Interactive Weather Map
Tropical Storm Tracking
New forecast layout! Learn more

10-Day Weather Forecast

Advertisements
Track Severe Weather on mobile